Obert, Nebraska
Current Conditions -  °F | °C
As of 10:55 AM on Friday 28 Nov 2014 (Local Time) from KLCG Reporting Station
Clear Clear  
Wind Chill: 30°   Ceiling: Unl
Heat Index: 36°   Visibility: 10mi
Dew Point: 26°   Wind: 8mph
Humidity: 65%   Direction: 180°S
Pressure: 29.77"   Gusts: NA
Location:  42.5999°N, 96.8805°W
Report Text: KLCG 281655Z AUTO 18007KT 10SM CLR 02/M04 A2977 RMK AO2 T00231036
Loading
Personal Weather Stations






























Interactive Weather Map New forecast layout! Learn more

10-Day Weather Forecast

Advertisements
Track Severe Weather on mobile